createdAt,value
2023-09-12T00:01:17.945Z,96561.50
2023-09-12T00:03:45.560Z,96558.38
2023-09-12T00:06:13.334Z,96558.81
2023-09-12T00:08:41.294Z,96560.34
2023-09-12T00:11:12.290Z,96558.47
2023-09-12T00:13:41.329Z,96565.31
2023-09-12T00:16:11.930Z,96559.53
2023-09-12T00:18:40.460Z,96562.22
2023-09-12T00:21:08.557Z,96549.09
2023-09-12T00:23:36.278Z,96559.44
2023-09-12T00:26:03.896Z,96556.69
2023-09-12T00:28:31.508Z,96556.75
2023-09-12T00:30:59.097Z,96551.31
2023-09-12T00:33:28.091Z,96555.94
2023-09-12T00:35:55.689Z,96552.44
2023-09-12T00:38:23.258Z,96548.91
2023-09-12T00:40:50.913Z,96552.75
2023-09-12T00:43:19.545Z,96552.75
2023-09-12T00:45:47.168Z,96558.84
2023-09-12T00:48:17.079Z,96553.44
2023-09-12T00:50:49.185Z,96548.13
2023-09-12T00:53:18.067Z,96549.75
2023-09-12T00:55:50.679Z,96548.97
2023-09-12T00:58:18.480Z,96544.34
2023-09-12T01:00:46.431Z,96548.13
2023-09-12T01:03:14.976Z,96550.34
2023-09-12T01:05:43.866Z,96548.00
2023-09-12T01:08:12.874Z,96559.91
2023-09-12T01:10:40.541Z,96562.31
2023-09-12T01:13:08.073Z,96559.50
2023-09-12T01:15:35.647Z,96562.56
2023-09-12T01:18:03.458Z,96570.22
2023-09-12T01:20:34.257Z,96560.25
2023-09-12T01:23:28.808Z,96573.34
2023-09-12T01:26:31.322Z,96570.13
2023-09-12T01:29:01.429Z,96573.19
2023-09-12T01:31:29.758Z,96578.13
2023-09-12T01:33:58.537Z,96580.75
2023-09-12T01:36:26.319Z,96575.31
2023-09-12T01:38:53.893Z,96581.13
2023-09-12T01:41:21.940Z,96579.13
2023-09-12T01:43:52.927Z,96579.97
2023-09-12T01:46:23.022Z,96584.50
2023-09-12T01:48:52.532Z,96578.72
2023-09-12T01:51:20.962Z,96585.03
2023-09-12T01:53:50.007Z,96586.50
2023-09-12T01:56:17.788Z,96578.59
2023-09-12T01:58:46.779Z,96585.13
2023-09-12T02:01:14.375Z,96584.28
2023-09-12T02:03:43.343Z,96584.72
2023-09-12T02:06:10.926Z,96586.25
2023-09-12T02:08:38.502Z,96587.00
2023-09-12T02:11:06.074Z,96582.34
2023-09-12T02:13:33.675Z,96578.69
2023-09-12T02:16:01.761Z,96584.09
2023-09-12T02:18:29.509Z,96578.56
2023-09-12T02:21:00.783Z,96581.97
2023-09-12T02:23:28.356Z,96586.91
2023-09-12T02:25:55.912Z,96587.28
2023-09-12T02:28:23.474Z,96589.97
2023-09-12T02:30:51.067Z,96585.50
2023-09-12T02:33:18.676Z,96589.66
2023-09-12T02:35:46.302Z,96586.09
2023-09-12T02:38:15.672Z,96585.41
2023-09-12T02:40:43.223Z,96578.06
2023-09-12T02:43:10.771Z,96577.16
2023-09-12T02:45:38.421Z,96577.06
2023-09-12T02:48:06.622Z,96581.66
2023-09-12T02:50:34.215Z,96574.47
2023-09-12T02:53:01.756Z,96591.38
2023-09-12T02:55:30.742Z,96594.38
2023-09-12T02:57:58.289Z,96585.47
2023-09-12T03:00:25.882Z,96591.84
2023-09-12T03:02:53.605Z,96595.03
2023-09-12T03:05:21.174Z,96593.00
2023-09-12T03:07:48.973Z,96587.72
2023-09-12T03:10:16.723Z,96588.38
2023-09-12T03:12:45.674Z,96586.41
2023-09-12T03:15:13.699Z,96580.91
2023-09-12T03:17:41.324Z,96581.66
2023-09-12T03:20:10.587Z,96574.41
2023-09-12T03:22:39.008Z,96580.25
2023-09-12T03:25:07.654Z,96578.38
2023-09-12T03:27:35.270Z,96576.34
2023-09-12T03:30:05.417Z,96582.44
2023-09-12T03:32:33.006Z,96580.09
2023-09-12T03:35:00.600Z,96573.13
2023-09-12T03:37:29.621Z,96579.28
2023-09-12T03:39:57.183Z,96575.47
2023-09-12T03:42:29.593Z,96567.75
2023-09-12T03:45:04.197Z,96572.03
2023-09-12T03:47:31.798Z,96562.78
2023-09-12T03:49:59.370Z,96563.94
2023-09-12T03:52:26.905Z,96567.47
2023-09-12T03:54:54.430Z,96569.03
2023-09-12T03:57:22.390Z,96571.63
2023-09-12T03:59:50.005Z,96567.00
2023-09-12T04:02:18.886Z,96560.06
2023-09-12T04:04:46.516Z,96558.53
2023-09-12T04:07:14.115Z,96559.63
2023-09-12T04:09:41.693Z,96562.31
2023-09-12T04:12:10.133Z,96559.16
2023-09-12T04:14:37.918Z,96566.13
2023-09-12T04:17:08.302Z,96566.19
2023-09-12T04:19:38.614Z,96563.91
2023-09-12T04:22:06.334Z,96565.59
2023-09-12T04:24:33.952Z,96564.16
2023-09-12T04:27:01.589Z,96568.78
2023-09-12T04:29:29.537Z,96572.44
2023-09-12T04:32:00.490Z,96575.13
2023-09-12T04:34:28.243Z,96568.78
2023-09-12T04:36:57.181Z,96564.53
2023-09-12T04:39:24.928Z,96579.03
2023-09-12T04:41:51.616Z,96577.81
2023-09-12T04:44:19.196Z,96576.41
2023-09-12T04:46:47.297Z,96584.81
2023-09-12T04:49:14.965Z,96588.56
2023-09-12T04:51:43.900Z,96584.66
2023-09-12T04:54:12.875Z,96584.53
2023-09-12T04:56:40.463Z,96585.81
2023-09-12T04:59:08.108Z,96577.09
2023-09-12T05:01:35.692Z,96576.59
2023-09-12T05:04:04.048Z,96586.63
2023-09-12T05:06:31.940Z,96586.59
2023-09-12T05:08:59.688Z,96594.59
2023-09-12T05:11:28.633Z,96588.56
2023-09-12T05:13:56.182Z,96595.00
2023-09-12T05:16:23.793Z,96593.41
2023-09-12T05:18:52.033Z,96597.63
2023-09-12T05:21:19.734Z,96591.13
2023-09-12T05:23:47.294Z,96602.59
2023-09-12T05:26:14.897Z,96590.56
2023-09-12T05:28:43.999Z,96594.88
2023-09-12T05:31:12.139Z,96586.19
2023-09-12T05:33:39.949Z,96601.59
2023-09-12T05:36:07.657Z,96597.34
2023-09-12T05:38:35.232Z,96599.97
2023-09-12T05:41:02.958Z,96602.66
2023-09-12T05:43:30.503Z,96604.97
2023-09-12T05:45:59.596Z,96609.25
2023-09-12T05:48:27.177Z,96606.31
2023-09-12T05:50:54.734Z,96609.16
2023-09-12T05:53:22.327Z,96611.13
2023-09-12T05:55:49.895Z,96605.69
2023-09-12T05:58:17.443Z,96608.09
2023-09-12T06:00:45.073Z,96602.00
2023-09-12T06:03:16.874Z,96607.38
2023-09-12T06:05:44.727Z,96611.22
2023-09-12T06:08:12.428Z,96619.66
2023-09-12T06:10:40.061Z,96615.47
2023-09-12T06:13:07.626Z,96622.75
2023-09-12T06:15:35.274Z,96623.47
2023-09-12T06:18:03.206Z,96619.59
2023-09-12T06:20:32.358Z,96619.75
2023-09-12T06:23:00.612Z,96616.19
2023-09-12T06:25:29.965Z,96619.38
2023-09-12T06:27:57.603Z,96619.38
2023-09-12T06:30:25.149Z,96620.50
2023-09-12T06:32:52.805Z,96619.31
2023-09-12T06:35:20.356Z,96627.84
2023-09-12T06:37:49.435Z,96623.75
2023-09-12T06:40:17.134Z,96624.47
2023-09-12T06:42:45.390Z,96623.22
2023-09-12T06:45:13.186Z,96620.53
2023-09-12T06:47:40.853Z,96625.59
2023-09-12T06:50:13.263Z,96628.78
2023-09-12T06:52:42.876Z,96625.00
2023-09-12T06:55:11.896Z,96620.44
2023-09-12T06:57:39.498Z,96624.78
2023-09-12T07:00:08.809Z,96615.19
2023-09-12T07:02:36.568Z,96617.22
2023-09-12T07:05:04.856Z,96607.31
2023-09-12T07:07:33.340Z,96622.03
2023-09-12T07:10:16.190Z,96620.44
2023-09-12T07:12:51.119Z,96622.03
2023-09-12T07:15:18.779Z,96620.56
2023-09-12T07:17:46.368Z,96623.38
2023-09-12T07:20:14.092Z,96623.06
2023-09-12T07:22:41.873Z,96637.34
2023-09-12T07:25:12.494Z,96644.31
2023-09-12T07:27:40.150Z,96638.16
2023-09-12T07:30:10.565Z,96623.47
2023-09-12T07:32:38.239Z,96623.09
2023-09-12T07:35:06.345Z,96623.84
2023-09-12T07:37:34.130Z,96632.72
2023-09-12T07:40:01.695Z,96623.81
2023-09-12T07:42:29.328Z,96631.94
2023-09-12T07:44:56.928Z,96627.28
2023-09-12T07:47:25.861Z,96637.31
2023-09-12T07:49:55.237Z,96636.97
2023-09-12T07:52:23.031Z,96638.16
2023-09-12T07:54:51.409Z,96633.03
2023-09-12T07:57:19.097Z,96639.50
2023-09-12T07:59:46.713Z,96649.47
2023-09-12T08:02:14.571Z,96645.53
2023-09-12T08:04:43.536Z,96632.25
2023-09-12T08:07:11.266Z,96632.91
2023-09-12T08:10:00.222Z,96628.97
2023-09-12T08:12:29.743Z,96626.16
2023-09-12T08:14:57.808Z,96627.25
2023-09-12T08:17:25.423Z,96632.19
2023-09-12T08:19:54.346Z,96639.78
2023-09-12T08:22:21.911Z,96639.09
2023-09-12T08:24:49.543Z,96631.97
2023-09-12T08:27:17.252Z,96638.34
2023-09-12T08:29:47.777Z,96636.19
2023-09-12T08:32:15.400Z,96629.81
2023-09-12T08:34:43.058Z,96618.38
2023-09-12T08:37:11.985Z,96619.31
2023-09-12T08:39:45.183Z,96624.34
2023-09-12T08:42:15.079Z,96624.34
2023-09-12T08:44:43.551Z,96621.38
2023-09-12T08:47:12.834Z,96616.97
2023-09-12T08:49:41.318Z,96618.28
2023-09-12T08:52:08.959Z,96615.28
2023-09-12T08:54:38.053Z,96617.00
2023-09-12T08:57:07.849Z,96613.72
2023-09-12T08:59:36.580Z,96616.72
2023-09-12T09:02:08.422Z,96614.50
2023-09-12T09:04:37.561Z,96604.56
2023-09-12T09:07:06.070Z,96610.75
2023-09-12T09:09:34.335Z,96604.41
2023-09-12T09:12:04.097Z,96605.13
2023-09-12T09:14:32.042Z,96604.53
2023-09-12T09:17:00.093Z,96595.13
2023-09-12T09:19:42.812Z,96589.66
2023-09-12T09:22:10.588Z,96595.88
2023-09-12T09:24:38.378Z,96595.53
2023-09-12T09:27:08.521Z,96589.41
2023-09-12T09:29:49.023Z,96588.06
2023-09-12T09:32:22.760Z,96595.22
2023-09-12T09:34:50.871Z,96593.38
2023-09-12T09:37:20.585Z,96593.44
2023-09-12T09:39:53.185Z,96594.59
2023-09-12T09:42:22.376Z,96589.84
2023-09-12T09:44:50.761Z,96589.06
2023-09-12T09:47:20.322Z,96595.31
2023-09-12T09:49:48.404Z,96599.22
2023-09-12T09:52:15.990Z,96602.03
2023-09-12T09:54:45.458Z,96603.31
2023-09-12T09:57:13.112Z,96594.44
2023-09-12T09:59:42.077Z,96594.53
2023-09-12T10:02:19.691Z,96595.47
2023-09-12T10:04:48.142Z,96599.66
2023-09-12T10:07:17.436Z,96597.59
2023-09-12T10:09:46.081Z,96590.38
2023-09-12T10:12:14.860Z,96594.59
2023-09-12T10:14:45.438Z,96582.44
2023-09-12T10:17:15.957Z,96583.94
2023-09-12T10:19:50.889Z,96578.94
2023-09-12T10:22:23.221Z,96576.44
2023-09-12T10:24:52.374Z,96566.94
2023-09-12T10:27:21.292Z,96559.81
2023-09-12T10:29:53.429Z,96561.16
2023-09-12T10:32:21.719Z,96556.56
2023-09-12T10:34:50.883Z,96562.69
2023-09-12T10:37:21.038Z,96562.47
2023-09-12T10:39:50.823Z,96552.78
2023-09-12T10:42:19.207Z,96558.22
2023-09-12T10:44:48.610Z,96546.72
2023-09-12T10:47:17.832Z,96548.91
2023-09-12T10:49:46.138Z,96543.38
2023-09-12T10:52:26.244Z,96547.78
2023-09-12T10:54:54.341Z,96545.25
2023-09-12T10:57:25.885Z,96542.41
2023-09-12T11:00:14.228Z,96541.78
2023-09-12T11:02:44.664Z,96540.97
2023-09-12T11:05:39.853Z,96533.34
2023-09-12T11:08:07.327Z,96527.22
2023-09-12T11:10:34.904Z,96524.56
2023-09-12T11:13:02.704Z,96522.94
2023-09-12T11:15:32.481Z,96522.09
2023-09-12T11:18:06.952Z,96513.44
2023-09-12T11:20:55.002Z,96513.69
2023-09-12T11:23:22.976Z,96514.47
2023-09-12T11:25:50.633Z,96518.50
2023-09-12T11:28:21.067Z,96516.03
2023-09-12T11:30:59.924Z,96514.16
2023-09-12T11:33:29.905Z,96516.03
2023-09-12T11:35:58.899Z,96507.16
2023-09-12T11:38:31.879Z,96511.03
2023-09-12T11:41:00.553Z,96500.41
2023-09-12T11:43:29.410Z,96500.69
2023-09-12T11:45:58.977Z,96501.66
2023-09-12T11:48:26.746Z,96499.00
2023-09-12T11:50:57.716Z,96489.22
2023-09-12T11:53:27.776Z,96498.44
2023-09-12T11:55:57.151Z,96492.97
2023-09-12T11:58:26.133Z,96496.69
2023-09-12T12:00:55.663Z,96495.53
2023-09-12T12:03:25.614Z,96498.50
2023-09-12T12:05:55.682Z,96494.09
2023-09-12T12:08:31.712Z,96486.47
2023-09-12T12:11:00.926Z,96483.38
2023-09-12T12:13:29.750Z,96482.63
2023-09-12T12:16:17.035Z,96492.84
2023-09-12T12:18:44.863Z,96482.78
2023-09-12T12:21:14.094Z,96481.28
2023-09-12T12:23:42.063Z,96471.22
2023-09-12T12:26:11.764Z,96469.97
2023-09-12T12:28:39.903Z,96463.88
2023-09-12T12:31:07.892Z,96466.97
2023-09-12T12:34:43.412Z,96472.34
2023-09-12T12:36:25.687Z,96473.25
2023-09-12T12:39:53.413Z,96466.22
2023-09-12T12:41:51.146Z,96466.31
2023-09-12T12:44:23.477Z,96458.38
2023-09-12T12:46:53.215Z,96460.84
2023-09-12T12:49:21.479Z,96454.72
2023-09-12T12:51:50.985Z,96458.72
2023-09-12T12:54:19.239Z,96466.31
2023-09-12T12:56:49.036Z,96464.19
2023-09-12T12:59:18.636Z,96457.03
2023-09-12T13:01:51.855Z,96461.69
2023-09-12T13:04:21.875Z,96456.56
2023-09-12T13:06:51.090Z,96452.28
2023-09-12T13:09:19.008Z,96451.09
2023-09-12T13:11:48.330Z,96449.88
2023-09-12T13:14:16.043Z,96454.13
2023-09-12T13:16:43.768Z,96452.59
2023-09-12T13:19:13.586Z,96464.88
2023-09-12T13:21:41.267Z,96460.44
2023-09-12T13:24:10.329Z,96458.13
2023-09-12T13:26:38.008Z,96466.03
2023-09-12T13:29:05.668Z,96466.78
2023-09-12T13:31:33.747Z,96470.34
2023-09-12T13:34:01.403Z,96471.50
2023-09-12T13:36:29.052Z,96469.19
2023-09-12T13:38:57.005Z,96475.31
2023-09-12T13:41:26.554Z,96482.22
2023-09-12T13:43:54.487Z,96482.66
2023-09-12T13:46:22.367Z,96486.25
2023-09-12T13:48:50.373Z,96486.31
2023-09-12T13:51:18.473Z,96480.63
2023-09-12T13:53:46.637Z,96494.63
2023-09-12T13:56:14.624Z,96491.56
2023-09-12T13:58:46.393Z,96496.88
2023-09-12T14:01:23.445Z,96490.38
2023-09-12T14:03:56.591Z,96483.38
2023-09-12T14:06:24.869Z,96489.09
2023-09-12T14:08:54.534Z,96489.66
2023-09-12T14:11:31.625Z,96487.66
2023-09-12T14:14:15.566Z,96485.72
2023-09-12T14:16:48.182Z,96490.09
2023-09-12T14:19:17.277Z,96494.31
2023-09-12T14:21:46.831Z,96488.81
2023-09-12T14:24:15.013Z,96485.13
2023-09-12T14:26:42.715Z,96495.66
2023-09-12T14:29:12.616Z,96493.25
2023-09-12T14:31:40.514Z,96494.81
2023-09-12T14:34:09.231Z,96493.88
2023-09-12T14:36:37.128Z,96494.91
2023-09-12T14:39:05.166Z,96505.88
2023-09-12T14:41:32.756Z,96508.50
2023-09-12T14:44:00.326Z,96507.38
2023-09-12T14:46:29.373Z,96510.88
2023-09-12T14:49:02.662Z,96508.88
2023-09-12T14:51:33.957Z,96514.41
2023-09-12T14:54:02.506Z,96517.41
2023-09-12T14:56:30.105Z,96505.19
2023-09-12T14:58:57.912Z,96503.66
2023-09-12T15:01:25.966Z,96505.22
2023-09-12T15:03:55.556Z,96508.59
2023-09-12T15:06:23.350Z,96511.97
2023-09-12T15:08:51.549Z,96511.31
2023-09-12T15:11:19.129Z,96503.25
2023-09-12T15:13:48.094Z,96501.06
2023-09-12T15:16:16.344Z,96491.91
2023-09-12T15:18:44.110Z,96497.34
2023-09-12T15:21:13.136Z,96491.94
2023-09-12T15:23:40.684Z,96482.09
2023-09-12T15:26:08.245Z,96483.66
2023-09-12T15:28:35.797Z,96483.50
2023-09-12T15:31:04.705Z,96478.38
2023-09-12T15:33:32.571Z,96477.38
2023-09-12T15:36:00.248Z,96473.28
2023-09-12T15:38:29.873Z,96481.16
2023-09-12T15:40:59.755Z,96475.38
2023-09-12T15:43:27.724Z,96491.03
2023-09-12T15:45:55.466Z,96500.22
2023-09-12T15:48:23.250Z,96501.91
2023-09-12T15:50:51.158Z,96497.59
2023-09-12T15:53:18.733Z,96513.63
2023-09-12T15:55:49.614Z,96513.56
2023-09-12T15:58:17.746Z,96522.78
2023-09-12T16:00:45.508Z,96517.00
2023-09-12T16:03:13.424Z,96513.31
2023-09-12T16:05:41.263Z,96506.34
2023-09-12T16:08:09.826Z,96500.16
2023-09-12T16:10:37.436Z,96509.63
2023-09-12T16:13:06.740Z,96519.59
2023-09-12T16:15:35.817Z,96529.47
2023-09-12T16:18:03.440Z,96525.66
2023-09-12T16:20:31.218Z,96520.16
2023-09-12T16:22:58.858Z,96524.28
2023-09-12T16:25:26.488Z,96516.84
2023-09-12T16:27:55.008Z,96517.13
2023-09-12T16:30:23.938Z,96522.41
2023-09-12T16:32:51.616Z,96523.03
2023-09-12T16:35:19.611Z,96518.16
2023-09-12T16:37:48.304Z,96525.97
2023-09-12T16:40:16.664Z,96526.22
2023-09-12T16:42:44.323Z,96526.00
2023-09-12T16:45:12.320Z,96523.66
2023-09-12T16:47:41.416Z,96520.50
2023-09-12T16:50:10.625Z,96517.91
2023-09-12T16:52:38.196Z,96506.72
2023-09-12T16:55:06.217Z,96507.06
2023-09-12T16:57:33.915Z,96497.31
2023-09-12T17:00:01.530Z,96494.53
2023-09-12T17:02:29.188Z,96484.72
2023-09-12T17:04:58.174Z,96478.75
2023-09-12T17:07:25.768Z,96479.56
2023-09-12T17:09:53.758Z,96475.84
2023-09-12T17:12:21.399Z,96478.00
2023-09-12T17:14:48.963Z,96487.63
2023-09-12T17:17:16.734Z,96482.84
2023-09-12T17:19:44.495Z,96487.97
2023-09-12T17:22:13.599Z,96495.41
2023-09-12T17:24:41.473Z,96501.47
2023-09-12T17:27:09.047Z,96500.66
2023-09-12T17:29:36.605Z,96503.78
2023-09-12T17:32:10.743Z,96516.00
2023-09-12T17:34:42.560Z,96511.84
2023-09-12T17:37:11.222Z,96531.81
2023-09-12T17:39:40.403Z,96524.22
2023-09-12T17:42:08.561Z,96528.09
2023-09-12T17:44:36.682Z,96532.22
2023-09-12T17:47:04.859Z,96528.75
2023-09-12T17:49:34.117Z,96529.56
2023-09-12T17:52:02.306Z,96536.56
2023-09-12T17:54:29.989Z,96533.25
2023-09-12T17:56:59.052Z,96526.91
2023-09-12T17:59:27.654Z,96536.84
2023-09-12T18:01:55.689Z,96537.97
2023-09-12T18:04:23.574Z,96538.59
2023-09-12T18:06:51.243Z,96539.78
2023-09-12T18:09:18.897Z,96544.38
2023-09-12T18:11:46.472Z,96548.66
2023-09-12T18:14:15.437Z,96552.56
2023-09-12T18:16:43.246Z,96554.06
2023-09-12T18:19:10.917Z,96562.13
2023-09-12T18:21:38.654Z,96560.38
2023-09-12T18:24:06.783Z,96553.00
2023-09-12T18:26:34.373Z,96548.97
2023-09-12T18:29:03.609Z,96547.47
2023-09-12T18:31:32.688Z,96543.84
2023-09-12T18:34:00.334Z,96546.69
2023-09-12T18:36:29.095Z,96552.56
2023-09-12T18:38:56.867Z,96554.88
2023-09-12T18:41:24.434Z,96551.34
2023-09-12T18:43:52.859Z,96546.41
2023-09-12T18:46:20.911Z,96549.09
2023-09-12T18:48:50.068Z,96561.56
2023-09-12T18:51:17.637Z,96556.53
2023-09-12T18:53:45.385Z,96558.81
2023-09-12T18:56:13.373Z,96560.34
2023-09-12T18:58:43.024Z,96558.47
2023-09-12T19:01:11.336Z,96548.91
2023-09-12T19:03:40.590Z,96537.00
2023-09-12T19:06:10.291Z,96536.25
2023-09-12T19:08:41.494Z,96547.09
2023-09-12T19:11:09.541Z,96553.75
2023-09-12T19:13:37.097Z,96548.28
2023-09-12T19:16:05.183Z,96558.28
2023-09-12T19:18:32.926Z,96554.38
2023-09-12T19:21:00.536Z,96573.78
2023-09-12T19:23:29.447Z,96595.50
2023-09-12T19:25:57.048Z,96605.59
2023-09-12T19:28:24.715Z,96608.72
2023-09-12T19:30:52.401Z,96600.91
2023-09-12T19:33:20.002Z,96601.63
2023-09-12T19:35:47.533Z,96610.03
2023-09-12T19:38:15.816Z,96614.25
2023-09-12T19:40:44.745Z,96612.66
2023-09-12T19:43:12.434Z,96608.41
2023-09-12T19:45:40.163Z,96612.38
2023-09-12T19:48:11.651Z,96612.44
2023-09-12T19:50:39.914Z,96619.44
2023-09-12T19:53:07.653Z,96625.66
2023-09-12T19:55:35.441Z,96638.03
2023-09-12T19:58:04.610Z,96641.50
2023-09-12T20:00:33.368Z,96651.16
2023-09-12T20:03:01.146Z,96650.75
2023-09-12T20:05:28.773Z,96641.88
2023-09-12T20:07:56.318Z,96647.28
2023-09-12T20:10:24.361Z,96643.44
2023-09-12T20:12:52.746Z,96628.00
2023-09-12T20:15:22.642Z,96626.88
2023-09-12T20:17:52.499Z,96624.16
2023-09-12T20:20:22.694Z,96632.69
2023-09-12T20:22:51.165Z,96623.41
2023-09-12T20:25:20.328Z,96631.16
2023-09-12T20:27:48.114Z,96623.03
2023-09-12T20:30:16.785Z,96642.34
2023-09-12T20:32:57.637Z,96641.16
2023-09-12T20:35:27.613Z,96649.69
2023-09-12T20:37:56.914Z,96649.31
2023-09-12T20:40:24.890Z,96662.06
2023-09-12T20:42:52.802Z,96660.16
2023-09-12T20:45:20.803Z,96664.00
2023-09-12T20:47:50.209Z,96668.63
2023-09-12T20:50:19.864Z,96666.72
2023-09-12T20:52:48.663Z,96681.38
2023-09-12T20:55:16.263Z,96668.25
2023-09-12T20:57:43.921Z,96681.41
2023-09-12T21:00:12.597Z,96681.00
2023-09-12T21:02:40.305Z,96696.84
2023-09-12T21:05:09.636Z,96699.19
2023-09-12T21:07:37.221Z,96700.31
2023-09-12T21:10:05.534Z,96710.38
2023-09-12T21:12:33.147Z,96710.00
2023-09-12T21:15:00.765Z,96714.59
2023-09-12T21:17:28.701Z,96719.63
2023-09-12T21:19:57.653Z,96719.25
2023-09-12T21:22:27.002Z,96719.25
2023-09-12T21:24:54.810Z,96723.88
2023-09-12T21:27:22.428Z,96722.34
2023-09-12T21:29:50.134Z,96727.38
2023-09-12T21:32:17.736Z,96729.31
2023-09-12T21:34:46.500Z,96731.25
2023-09-12T21:37:15.811Z,96730.09
2023-09-12T21:39:45.543Z,96737.41
2023-09-12T21:42:15.146Z,96742.44
2023-09-12T21:44:42.681Z,96744.00
2023-09-12T21:47:10.235Z,96744.78
2023-09-12T21:49:37.845Z,96735.88
2023-09-12T21:52:06.646Z,96736.66
2023-09-12T21:54:34.289Z,96744.00
2023-09-12T21:57:03.286Z,96745.53
2023-09-12T21:59:30.891Z,96755.22
2023-09-12T22:01:58.549Z,96748.25
2023-09-12T22:04:26.262Z,96752.09
2023-09-12T22:06:53.891Z,96748.25
2023-09-12T22:09:21.518Z,96739.34
2023-09-12T22:11:49.111Z,96752.47
2023-09-12T22:14:17.996Z,96747.84
2023-09-12T22:16:45.592Z,96743.22
2023-09-12T22:19:13.239Z,96746.34
2023-09-12T22:21:40.843Z,96743.22
2023-09-12T22:24:08.805Z,96745.53
2023-09-12T22:26:36.428Z,96758.66
2023-09-12T22:29:04.946Z,96766.03
2023-09-12T22:31:33.920Z,96750.56
2023-09-12T22:34:01.647Z,96747.84
2023-09-12T22:36:29.216Z,96743.19
2023-09-12T22:38:56.772Z,96747.84
2023-09-12T22:41:25.883Z,96754.78
2023-09-12T22:43:53.548Z,96762.16
2023-09-12T22:46:21.132Z,96769.91
2023-09-12T22:48:50.144Z,96778.00
2023-09-12T22:51:17.737Z,96781.06
2023-09-12T22:53:45.618Z,96785.34
2023-09-12T22:56:13.351Z,96777.63
2023-09-12T22:58:41.010Z,96780.69
2023-09-12T23:01:10.098Z,96776.06
2023-09-12T23:03:37.857Z,96774.91
2023-09-12T23:06:06.905Z,96770.66
2023-09-12T23:08:38.177Z,96777.22
2023-09-12T23:11:05.799Z,96766.41
2023-09-12T23:13:33.491Z,96763.69
2023-09-12T23:16:01.546Z,96750.94
2023-09-12T23:18:29.227Z,96762.16
2023-09-12T23:20:56.796Z,96762.16
2023-09-12T23:23:25.698Z,96754.41
2023-09-12T23:25:54.442Z,96762.53
2023-09-12T23:28:22.063Z,96757.91
2023-09-12T23:30:49.768Z,96772.59
2023-09-12T23:33:17.388Z,96767.16
2023-09-12T23:35:44.995Z,96758.28
2023-09-12T23:38:12.597Z,96763.31
2023-09-12T23:40:41.762Z,96764.09
2023-09-12T23:43:09.396Z,96772.56
2023-09-12T23:45:37.034Z,96772.53
2023-09-12T23:48:05.375Z,96772.94
2023-09-12T23:50:32.946Z,96771.75
2023-09-12T23:53:00.534Z,96772.50
2023-09-12T23:55:28.387Z,96763.59
2023-09-12T23:57:57.345Z,96769.38
